createdAt,value
2022-10-06T00:00:54.140Z,100354.91
2022-10-06T00:03:24.677Z,100357.78
2022-10-06T00:05:51.629Z,100354.25
2022-10-06T00:08:18.871Z,100357.78
2022-10-06T00:10:45.377Z,100369.28
2022-10-06T00:13:11.913Z,100361.53
2022-10-06T00:15:39.114Z,100361.25
2022-10-06T00:18:05.857Z,100367.72
2022-10-06T00:20:32.620Z,100364.53
2022-10-06T00:22:59.253Z,100370.16
2022-10-06T00:25:28.218Z,100376.19
2022-10-06T00:27:55.155Z,100372.44
2022-10-06T00:30:23.927Z,100373.56
2022-10-06T00:32:57.190Z,100371.56
2022-10-06T00:35:29.295Z,100367.16
2022-10-06T00:37:55.807Z,100376.41
2022-10-06T00:40:22.806Z,100373.44
2022-10-06T00:42:55.885Z,100372.97
2022-10-06T00:45:26.116Z,100369.13
2022-10-06T00:47:53.848Z,100367.34
2022-10-06T00:50:20.355Z,100369.84
2022-10-06T00:52:47.057Z,100375.38
2022-10-06T00:55:14.226Z,100378.09
2022-10-06T00:57:41.395Z,100384.63
2022-10-06T01:00:10.419Z,100375.91
2022-10-06T01:02:42.842Z,100368.78
2022-10-06T01:05:13.340Z,100380.88
2022-10-06T01:07:40.129Z,100376.13
2022-10-06T01:10:07.064Z,100376.56
2022-10-06T01:12:34.698Z,100381.69
2022-10-06T01:15:01.940Z,100381.97
2022-10-06T01:17:35.914Z,100383.88
2022-10-06T01:20:09.013Z,100383.50
2022-10-06T01:22:55.902Z,100383.78
2022-10-06T01:25:22.778Z,100388.66
2022-10-06T01:27:53.689Z,100382.81
2022-10-06T01:30:25.897Z,100384.88
2022-10-06T01:32:52.616Z,100384.38
2022-10-06T01:35:19.298Z,100385.78
2022-10-06T01:37:45.917Z,100383.59
2022-10-06T01:40:12.760Z,100394.81
2022-10-06T01:42:39.327Z,100391.44
2022-10-06T01:45:06.765Z,100393.34
2022-10-06T01:47:34.221Z,100382.66
2022-10-06T01:50:01.162Z,100391.13
2022-10-06T01:52:28.031Z,100389.66
2022-10-06T01:54:54.943Z,100395.75
2022-10-06T01:57:21.425Z,100393.44
2022-10-06T01:59:51.538Z,100401.91
2022-10-06T02:02:21.090Z,100403.59
2022-10-06T02:04:47.757Z,100405.31
2022-10-06T02:07:14.304Z,100404.81
2022-10-06T02:09:40.803Z,100410.22
2022-10-06T02:12:07.311Z,100401.94
2022-10-06T02:14:34.759Z,100402.09
2022-10-06T02:17:01.339Z,100410.41
2022-10-06T02:19:28.082Z,100416.31
2022-10-06T02:21:54.629Z,100414.66
2022-10-06T02:24:21.187Z,100413.28
2022-10-06T02:26:47.722Z,100413.44
2022-10-06T02:29:14.289Z,100417.44
2022-10-06T02:31:40.950Z,100426.25
2022-10-06T02:34:07.593Z,100427.94
2022-10-06T02:36:34.100Z,100417.25
2022-10-06T02:39:00.613Z,100421.16
2022-10-06T02:41:27.068Z,100418.88
2022-10-06T02:43:55.189Z,100423.44
2022-10-06T02:46:22.335Z,100424.28
2022-10-06T02:48:48.944Z,100423.94
2022-10-06T02:51:17.722Z,100421.06
2022-10-06T02:53:45.799Z,100422.22
2022-10-06T02:56:16.233Z,100412.88
2022-10-06T02:58:44.047Z,100429.78
2022-10-06T03:01:13.475Z,100430.97
2022-10-06T03:03:40.782Z,100438.25
2022-10-06T03:06:21.828Z,100449.09
2022-10-06T03:08:50.075Z,100458.97
2022-10-06T03:11:20.950Z,100455.91
2022-10-06T03:13:47.983Z,100462.50
2022-10-06T03:16:25.886Z,100458.41
2022-10-06T03:18:53.871Z,100460.31
2022-10-06T03:21:22.621Z,100466.25
2022-10-06T03:23:50.664Z,100467.44
2022-10-06T03:26:20.364Z,100463.88
2022-10-06T03:28:47.244Z,100467.28
2022-10-06T03:31:14.990Z,100471.19
2022-10-06T03:33:41.475Z,100468.81
2022-10-06T03:36:11.867Z,100476.59
2022-10-06T03:38:38.831Z,100481.84
2022-10-06T03:41:09.776Z,100478.78
2022-10-06T03:43:37.909Z,100484.22
2022-10-06T03:46:05.325Z,100491.69
2022-10-06T03:48:34.882Z,100498.09
2022-10-06T03:51:15.282Z,100506.06
2022-10-06T03:53:46.547Z,100507.59
2022-10-06T03:56:12.942Z,100497.94
2022-10-06T03:58:42.702Z,100509.09
2022-10-06T04:01:11.960Z,100512.34
2022-10-06T04:03:38.699Z,100518.59
2022-10-06T04:06:06.682Z,100517.91
2022-10-06T04:08:34.863Z,100520.63
2022-10-06T04:11:26.203Z,100519.28
2022-10-06T04:14:10.012Z,100519.09
2022-10-06T04:16:38.553Z,100524.88
2022-10-06T04:19:09.910Z,100531.47
2022-10-06T04:21:37.990Z,100530.94
2022-10-06T04:24:06.259Z,100534.19
2022-10-06T04:26:35.699Z,100532.81
2022-10-06T04:29:02.445Z,100534.31
2022-10-06T04:31:31.847Z,100544.16
2022-10-06T04:33:59.751Z,100538.41
2022-10-06T04:36:29.081Z,100546.00
2022-10-06T04:39:00.460Z,100534.50
2022-10-06T04:41:29.379Z,100535.00
2022-10-06T04:43:56.268Z,100534.47
2022-10-06T04:46:42.117Z,100540.94
2022-10-06T04:49:13.347Z,100541.78
2022-10-06T04:51:44.434Z,100545.00
2022-10-06T04:54:11.067Z,100556.69
2022-10-06T04:56:37.743Z,100551.81
2022-10-06T04:59:04.230Z,100560.94
2022-10-06T05:01:33.320Z,100559.91
2022-10-06T05:04:01.672Z,100565.88
2022-10-06T05:06:33.132Z,100575.66
2022-10-06T05:09:02.629Z,100578.22
2022-10-06T05:11:29.632Z,100591.13
2022-10-06T05:13:57.433Z,100600.75
2022-10-06T05:16:25.291Z,100595.66
2022-10-06T05:18:51.976Z,100610.72
2022-10-06T05:21:27.720Z,100613.38
2022-10-06T05:23:54.234Z,100614.66
2022-10-06T05:26:23.180Z,100626.34
2022-10-06T05:28:50.263Z,100631.81
2022-10-06T05:31:26.898Z,100635.84
2022-10-06T05:33:54.078Z,100641.22
2022-10-06T05:36:22.278Z,100640.09
2022-10-06T05:38:49.162Z,100652.94
2022-10-06T05:41:28.672Z,100659.72
2022-10-06T05:43:55.403Z,100659.53
2022-10-06T05:46:28.303Z,100662.09
2022-10-06T05:48:56.676Z,100672.97
2022-10-06T05:51:30.034Z,100671.59
2022-10-06T05:53:58.636Z,100678.00
2022-10-06T05:56:29.972Z,100678.00
2022-10-06T05:58:57.891Z,100691.03
2022-10-06T06:01:25.231Z,100689.84
2022-10-06T06:04:03.220Z,100685.59
2022-10-06T06:06:30.729Z,100698.00
2022-10-06T06:09:00.142Z,100693.38
2022-10-06T06:11:28.634Z,100717.22
2022-10-06T06:13:59.771Z,100714.81
2022-10-06T06:16:27.374Z,100750.72
2022-10-06T06:18:54.436Z,100762.16
2022-10-06T06:21:21.282Z,100786.88
2022-10-06T06:23:48.755Z,100797.66
2022-10-06T06:26:17.808Z,100811.75
2022-10-06T06:28:46.466Z,100808.00
2022-10-06T06:31:19.162Z,100823.03
2022-10-06T06:33:47.961Z,100842.91
2022-10-06T06:36:22.132Z,100863.09
2022-10-06T06:38:51.879Z,100864.09
2022-10-06T06:41:23.838Z,100870.41
2022-10-06T06:43:51.107Z,100881.97
2022-10-06T06:46:19.330Z,100899.69
2022-10-06T06:48:47.108Z,100892.84
2022-10-06T06:51:13.954Z,100897.44
2022-10-06T06:53:40.749Z,100897.69
2022-10-06T06:56:08.850Z,100899.06
2022-10-06T06:58:36.189Z,100899.50
2022-10-06T07:01:06.574Z,100909.63
2022-10-06T07:03:52.506Z,100921.16
2022-10-06T07:06:19.540Z,100922.75
2022-10-06T07:08:47.823Z,100934.16
2022-10-06T07:11:18.975Z,100941.88
2022-10-06T07:13:46.868Z,100940.59
2022-10-06T07:16:34.117Z,100943.16
2022-10-06T07:19:24.511Z,100955.56
2022-10-06T07:22:15.042Z,100947.16
2022-10-06T07:25:00.715Z,100950.44
2022-10-06T07:27:28.254Z,100949.44
2022-10-06T07:29:56.635Z,100943.47
2022-10-06T07:32:30.746Z,100946.88
2022-10-06T07:35:00.918Z,100950.69
2022-10-06T07:37:28.912Z,100963.59
2022-10-06T07:39:55.457Z,100963.59
2022-10-06T07:42:21.961Z,100969.00
2022-10-06T07:45:07.229Z,100987.50
2022-10-06T07:47:34.080Z,100985.75
2022-10-06T07:50:00.575Z,100998.47
2022-10-06T07:52:30.505Z,100997.25
2022-10-06T07:54:58.337Z,101005.00
2022-10-06T07:57:35.288Z,101009.41
2022-10-06T08:00:05.365Z,101008.78
2022-10-06T08:02:35.489Z,101019.88
2022-10-06T08:05:03.691Z,101031.78
2022-10-06T08:07:30.470Z,101027.13
2022-10-06T08:09:56.948Z,101030.44
2022-10-06T08:12:37.734Z,101029.81
2022-10-06T08:15:07.595Z,101034.25
2022-10-06T08:17:36.447Z,101029.41
2022-10-06T08:20:04.652Z,101034.13
2022-10-06T08:22:31.516Z,101038.19
2022-10-06T08:25:05.628Z,101050.38
2022-10-06T08:27:34.808Z,101056.25
2022-10-06T08:30:01.472Z,101058.72
2022-10-06T08:32:27.955Z,101067.34
2022-10-06T08:34:54.689Z,101071.13
2022-10-06T08:37:23.751Z,101072.13
2022-10-06T08:39:54.252Z,101075.06
2022-10-06T08:42:42.227Z,101081.94
2022-10-06T08:45:29.075Z,101074.06
2022-10-06T08:48:00.713Z,101079.50
2022-10-06T08:50:29.363Z,101094.50
2022-10-06T08:53:09.423Z,101098.31
2022-10-06T08:55:50.004Z,101108.38
2022-10-06T08:58:33.317Z,101105.44
2022-10-06T09:01:20.159Z,101104.41
2022-10-06T09:03:48.963Z,101118.34
2022-10-06T09:06:26.925Z,101112.09
2022-10-06T09:08:58.716Z,101118.06
2022-10-06T09:11:46.783Z,101118.75
2022-10-06T09:14:33.458Z,101121.22
2022-10-06T09:17:03.439Z,101130.75
2022-10-06T09:19:39.954Z,101127.84
2022-10-06T09:22:13.599Z,101138.47
2022-10-06T09:24:47.207Z,101137.78
2022-10-06T09:27:22.044Z,101145.94
2022-10-06T09:29:48.800Z,101150.63
2022-10-06T09:32:22.990Z,101151.84
2022-10-06T09:34:52.222Z,101156.84
2022-10-06T09:37:19.260Z,101158.53
2022-10-06T09:39:49.378Z,101161.84
2022-10-06T09:42:19.713Z,101161.91
2022-10-06T09:44:59.000Z,101155.69
2022-10-06T09:47:39.681Z,101163.22
2022-10-06T09:50:11.295Z,101163.84
2022-10-06T09:53:03.403Z,101159.09
2022-10-06T09:55:41.631Z,101162.56
2022-10-06T09:58:17.191Z,101155.06
2022-10-06T10:00:52.350Z,101153.69
2022-10-06T10:03:19.144Z,101165.13
2022-10-06T10:05:50.533Z,101163.75
2022-10-06T10:08:23.528Z,101176.94
2022-10-06T10:10:51.511Z,101168.47
2022-10-06T10:13:19.269Z,101170.00
2022-10-06T10:16:00.946Z,101175.72
2022-10-06T10:18:30.415Z,101172.72
2022-10-06T10:21:05.122Z,101169.63
2022-10-06T10:23:34.131Z,101172.25
2022-10-06T10:26:28.314Z,101185.28
2022-10-06T10:29:07.918Z,101185.25
2022-10-06T10:31:48.279Z,101190.47
2022-10-06T10:34:45.908Z,101202.75
2022-10-06T10:37:15.039Z,101185.59
2022-10-06T10:39:56.631Z,101188.09
2022-10-06T10:42:31.527Z,101196.00
2022-10-06T10:45:01.949Z,101190.09
2022-10-06T10:47:32.824Z,101185.53
2022-10-06T10:50:17.357Z,101191.81
2022-10-06T10:52:46.932Z,101188.41
2022-10-06T10:55:23.212Z,101188.19
2022-10-06T10:57:50.440Z,101196.69
2022-10-06T11:00:22.909Z,101200.53
2022-10-06T11:02:52.237Z,101197.53
2022-10-06T11:05:29.069Z,101212.31
2022-10-06T11:07:58.573Z,101205.66
2022-10-06T11:10:34.533Z,101210.88
2022-10-06T11:13:16.287Z,101198.03
2022-10-06T11:16:08.859Z,101204.13
2022-10-06T11:18:35.399Z,101208.69
2022-10-06T11:21:11.846Z,101211.88
2022-10-06T11:23:44.525Z,101211.16
2022-10-06T11:26:26.628Z,101217.34
2022-10-06T11:29:31.523Z,101205.16
2022-10-06T11:32:12.903Z,101212.44
2022-10-06T11:34:40.780Z,101219.78
2022-10-06T11:37:16.414Z,101206.38
2022-10-06T11:39:54.284Z,101202.09
2022-10-06T11:42:40.906Z,101212.19
2022-10-06T11:45:18.159Z,101220.38
2022-10-06T11:48:03.487Z,101220.38
2022-10-06T11:50:33.322Z,101221.06
2022-10-06T11:52:59.792Z,101218.91
2022-10-06T11:55:28.846Z,101226.91
2022-10-06T11:58:41.521Z,101225.22
2022-10-06T12:00:55.272Z,101235.50
2022-10-06T12:03:33.754Z,101218.69
2022-10-06T12:06:00.233Z,101221.56
2022-10-06T12:08:39.874Z,101212.06
2022-10-06T12:11:38.029Z,101213.41
2022-10-06T12:15:37.953Z,101218.09
2022-10-06T12:17:16.938Z,101207.25
2022-10-06T12:20:14.683Z,101211.81
2022-10-06T12:22:47.394Z,101215.06
2022-10-06T12:25:31.689Z,101212.75
2022-10-06T12:28:09.780Z,101208.47
2022-10-06T12:30:56.204Z,101214.16
2022-10-06T12:33:35.290Z,101225.47
2022-10-06T12:36:03.332Z,101224.22
2022-10-06T12:38:43.070Z,101219.56
2022-10-06T12:41:11.624Z,101210.16
2022-10-06T12:43:53.808Z,101209.50
2022-10-06T12:46:26.983Z,101212.91
2022-10-06T12:49:09.154Z,101214.78
2022-10-06T12:51:39.130Z,101216.72
2022-10-06T12:54:05.667Z,101214.53
2022-10-06T12:56:34.763Z,101211.44
2022-10-06T12:59:35.133Z,101212.41
2022-10-06T13:02:05.098Z,101212.25
2022-10-06T13:04:49.092Z,101221.38
2022-10-06T13:07:33.036Z,101217.09
2022-10-06T13:10:14.829Z,101226.88
2022-10-06T13:12:46.547Z,101216.47
2022-10-06T13:15:13.114Z,101210.78
2022-10-06T13:17:50.597Z,101212.03
2022-10-06T13:20:18.954Z,101212.06
2022-10-06T13:22:45.416Z,101218.19
2022-10-06T13:25:16.324Z,101217.13
2022-10-06T13:27:49.961Z,101219.69
2022-10-06T13:30:21.525Z,101221.78
2022-10-06T13:32:52.122Z,101225.34
2022-10-06T13:35:22.497Z,101230.63
2022-10-06T13:37:49.278Z,101230.63
2022-10-06T13:40:21.792Z,101230.47
2022-10-06T13:43:01.868Z,101232.13
2022-10-06T13:45:28.738Z,101221.53
2022-10-06T13:48:08.875Z,101232.34
2022-10-06T13:50:36.411Z,101232.56
2022-10-06T13:53:03.728Z,101240.69
2022-10-06T13:55:31.368Z,101234.44
2022-10-06T13:58:03.423Z,101243.53
2022-10-06T14:00:45.590Z,101247.22
2022-10-06T14:05:46.662Z,101246.75
2022-10-06T14:08:13.111Z,101247.28
2022-10-06T14:10:50.329Z,101247.06
2022-10-06T14:13:20.625Z,101247.78
2022-10-06T14:15:53.339Z,101250.56
2022-10-06T14:18:25.075Z,101251.66
2022-10-06T14:20:57.114Z,101248.56
2022-10-06T14:23:43.219Z,101250.22
2022-10-06T14:26:13.634Z,101255.81
2022-10-06T14:31:14.136Z,101248.31
2022-10-06T14:33:41.364Z,101254.66
2022-10-06T14:36:15.252Z,101253.41
2022-10-06T14:38:41.706Z,101251.97
2022-10-06T14:41:08.183Z,101245.25
2022-10-06T14:43:34.601Z,101250.97
2022-10-06T14:46:04.031Z,101255.09
2022-10-06T14:48:32.695Z,101257.34
2022-10-06T14:51:03.082Z,101261.66
2022-10-06T14:53:30.086Z,101256.88
2022-10-06T14:56:06.444Z,101253.31
2022-10-06T14:58:36.975Z,101267.59
2022-10-06T15:01:07.547Z,101257.59
2022-10-06T15:03:35.057Z,101261.31
2022-10-06T15:06:28.045Z,101259.16
2022-10-06T15:08:56.660Z,101261.94
2022-10-06T15:11:25.496Z,101257.09
2022-10-06T15:13:53.847Z,101261.91
2022-10-06T15:16:22.995Z,101264.16
2022-10-06T15:18:50.374Z,101256.13
2022-10-06T15:21:18.506Z,101264.19
2022-10-06T15:23:45.649Z,101260.50
2022-10-06T15:26:30.785Z,101267.75
2022-10-06T15:29:03.549Z,101263.03
2022-10-06T15:31:35.483Z,101271.81
2022-10-06T15:34:03.908Z,101274.63
2022-10-06T15:36:33.597Z,101268.22
2022-10-06T15:39:04.294Z,101272.50
2022-10-06T15:41:30.750Z,101276.13
2022-10-06T15:43:57.586Z,101272.94
2022-10-06T15:46:38.694Z,101272.38
2022-10-06T15:49:07.741Z,101265.41
2022-10-06T15:51:38.281Z,101275.56
2022-10-06T15:54:05.202Z,101279.06
2022-10-06T15:56:32.035Z,101284.16
2022-10-06T15:58:59.052Z,101279.25
2022-10-06T16:01:25.678Z,101279.06
2022-10-06T16:03:53.309Z,101277.38
2022-10-06T16:06:43.210Z,101283.66
2022-10-06T16:09:12.799Z,101274.63
2022-10-06T16:11:39.517Z,101269.94
2022-10-06T16:14:07.058Z,101277.53
2022-10-06T16:16:34.015Z,101286.41
2022-10-06T16:19:02.251Z,101281.44
2022-10-06T16:21:30.106Z,101283.75
2022-10-06T16:23:58.016Z,101277.91
2022-10-06T16:26:26.001Z,101287.72
2022-10-06T16:28:52.972Z,101277.50
2022-10-06T16:31:20.543Z,101281.13
2022-10-06T16:33:47.966Z,101282.34
2022-10-06T16:36:16.278Z,101285.84
2022-10-06T16:38:43.490Z,101287.88
2022-10-06T16:41:10.485Z,101293.56
2022-10-06T16:43:42.143Z,101295.41
2022-10-06T16:46:23.375Z,101291.78
2022-10-06T16:48:52.024Z,101300.25
2022-10-06T16:51:29.655Z,101303.22
2022-10-06T16:53:56.601Z,101303.94
2022-10-06T16:56:37.221Z,101311.84
2022-10-06T16:59:12.133Z,101315.31
2022-10-06T17:01:38.718Z,101315.59
2022-10-06T17:04:13.421Z,101322.13
2022-10-06T17:06:43.334Z,101328.00
2022-10-06T17:09:13.884Z,101319.00
2022-10-06T17:11:49.386Z,101330.69
2022-10-06T17:14:15.966Z,101334.22
2022-10-06T17:16:44.070Z,101328.66
2022-10-06T17:19:12.514Z,101336.88
2022-10-06T17:21:48.713Z,101332.16
2022-10-06T17:24:17.930Z,101332.13
2022-10-06T17:26:47.693Z,101330.56
2022-10-06T17:29:19.159Z,101331.53
2022-10-06T17:31:47.325Z,101337.16
2022-10-06T17:34:21.156Z,101333.13
2022-10-06T17:36:50.823Z,101332.81
2022-10-06T17:39:22.145Z,101335.59
2022-10-06T17:41:50.992Z,101327.25
2022-10-06T17:44:22.714Z,101323.81
2022-10-06T17:46:52.181Z,101329.19
2022-10-06T17:49:20.813Z,101331.16
2022-10-06T17:51:48.099Z,101337.06
2022-10-06T17:54:18.078Z,101330.03
2022-10-06T17:56:46.008Z,101326.28
2022-10-06T17:59:16.396Z,101329.78
2022-10-06T18:01:45.146Z,101330.44
2022-10-06T18:04:16.041Z,101329.03
2022-10-06T18:06:44.084Z,101327.97
2022-10-06T18:09:11.011Z,101322.94
2022-10-06T18:11:42.129Z,101323.06
2022-10-06T18:14:19.642Z,101325.84
2022-10-06T18:16:57.519Z,101327.91
2022-10-06T18:19:28.500Z,101326.38
2022-10-06T18:21:56.696Z,101319.13
2022-10-06T18:24:25.467Z,101317.44
2022-10-06T18:26:53.915Z,101324.31
2022-10-06T18:29:23.645Z,101320.13
2022-10-06T18:31:52.376Z,101317.19
2022-10-06T18:37:05.474Z,101315.66
2022-10-06T18:39:33.417Z,101319.81
2022-10-06T18:42:02.824Z,101326.81
2022-10-06T18:44:48.730Z,101329.41
2022-10-06T18:47:33.754Z,101337.34
2022-10-06T18:50:00.223Z,101335.50
2022-10-06T18:52:26.639Z,101334.56
2022-10-06T18:54:53.197Z,101326.47
2022-10-06T18:57:23.837Z,101331.84
2022-10-06T18:59:53.397Z,101335.50
2022-10-06T19:02:20.159Z,101335.97
2022-10-06T19:04:47.960Z,101344.34
2022-10-06T19:07:14.498Z,101344.56
2022-10-06T19:09:46.206Z,101339.31
2022-10-06T19:12:13.732Z,101345.06
2022-10-06T19:14:46.953Z,101343.31
2022-10-06T19:17:14.789Z,101346.13
2022-10-06T19:19:51.349Z,101349.06
2022-10-06T19:22:21.516Z,101352.38
2022-10-06T19:24:48.496Z,101347.09
2022-10-06T19:27:20.705Z,101341.34
2022-10-06T19:29:54.089Z,101345.75
2022-10-06T19:32:24.227Z,101352.44
2022-10-06T19:34:50.822Z,101352.34
2022-10-06T19:37:17.876Z,101342.31
2022-10-06T19:39:46.683Z,101335.34
2022-10-06T19:42:33.775Z,101334.72
2022-10-06T19:45:00.282Z,101344.13
2022-10-06T19:47:27.368Z,101350.09
2022-10-06T19:49:58.332Z,101346.03
2022-10-06T19:52:26.410Z,101340.53
2022-10-06T19:54:52.922Z,101337.97
2022-10-06T19:57:19.339Z,101339.91
2022-10-06T19:59:45.819Z,101352.22
2022-10-06T20:02:12.287Z,101346.19
2022-10-06T20:04:39.842Z,101342.38
2022-10-06T20:07:06.542Z,101348.59
2022-10-06T20:09:33.559Z,101351.19
2022-10-06T20:12:01.494Z,101348.72
2022-10-06T20:14:28.716Z,101349.69
2022-10-06T20:16:56.096Z,101346.88
2022-10-06T20:19:25.283Z,101356.28
2022-10-06T20:21:52.045Z,101347.97
2022-10-06T20:24:23.002Z,101339.44
2022-10-06T20:26:50.647Z,101342.03
2022-10-06T20:29:24.044Z,101353.13
2022-10-06T20:31:55.188Z,101348.38
2022-10-06T20:34:27.019Z,101344.63
2022-10-06T20:36:56.143Z,101348.38
2022-10-06T20:39:42.157Z,101341.53
2022-10-06T20:42:13.936Z,101346.78
2022-10-06T20:44:42.367Z,101341.63
2022-10-06T20:47:10.234Z,101349.94
2022-10-06T20:49:37.034Z,101352.22
2022-10-06T20:52:04.717Z,101342.56
2022-10-06T20:54:34.725Z,101353.75
2022-10-06T20:57:04.429Z,101350.16
2022-10-06T20:59:31.762Z,101343.06
2022-10-06T21:02:00.302Z,101346.94
2022-10-06T21:04:27.695Z,101341.16
2022-10-06T21:06:54.450Z,101338.72
2022-10-06T21:09:21.189Z,101333.44
2022-10-06T21:11:49.092Z,101332.59
2022-10-06T21:14:16.171Z,101339.38
2022-10-06T21:16:45.110Z,101335.94
2022-10-06T21:19:17.121Z,101338.50
2022-10-06T21:21:46.081Z,101333.06
2022-10-06T21:24:12.692Z,101332.59
2022-10-06T21:26:42.573Z,101323.53
2022-10-06T21:29:14.232Z,101327.16
2022-10-06T21:31:41.516Z,101326.19
2022-10-06T21:34:08.299Z,101326.19
2022-10-06T21:36:34.889Z,101319.97
2022-10-06T21:39:01.899Z,101319.44
2022-10-06T21:41:36.238Z,101313.44
2022-10-06T21:44:17.083Z,101317.84
2022-10-06T21:46:51.636Z,101308.59
2022-10-06T21:49:23.083Z,101306.22
2022-10-06T21:51:54.068Z,101302.91
2022-10-06T21:54:21.723Z,101296.78
2022-10-06T21:56:48.719Z,101304.63
2022-10-06T21:59:15.543Z,101302.91
2022-10-06T22:01:43.706Z,101302.91
2022-10-06T22:04:12.747Z,101305.53
2022-10-06T22:06:39.510Z,101308.41
2022-10-06T22:09:07.732Z,101308.19
2022-10-06T22:11:36.920Z,101295.00
2022-10-06T22:14:05.690Z,101302.84
2022-10-06T22:16:33.998Z,101310.56
2022-10-06T22:19:03.059Z,101308.19
2022-10-06T22:21:41.183Z,101297.28
2022-10-06T22:24:09.875Z,101300.38
2022-10-06T22:26:38.120Z,101304.44
2022-10-06T22:29:07.020Z,101301.88
2022-10-06T22:31:34.388Z,101301.16
2022-10-06T22:34:04.749Z,101299.66
2022-10-06T22:36:33.843Z,101295.56
2022-10-06T22:39:00.987Z,101295.56
2022-10-06T22:41:27.821Z,101295.09
2022-10-06T22:43:58.842Z,101297.75
2022-10-06T22:46:31.977Z,101300.53
2022-10-06T22:48:59.002Z,101292.50
2022-10-06T22:51:25.832Z,101289.31
2022-10-06T22:53:58.539Z,101295.09
2022-10-06T22:56:27.152Z,101293.78
2022-10-06T22:58:53.816Z,101283.50
2022-10-06T23:01:20.928Z,101285.53
2022-10-06T23:03:47.988Z,101286.69
2022-10-06T23:06:16.306Z,101285.09
2022-10-06T23:08:43.210Z,101288.84
2022-10-06T23:11:13.121Z,101289.91
2022-10-06T23:13:39.938Z,101283.47
2022-10-06T23:16:08.661Z,101281.94
2022-10-06T23:18:37.066Z,101282.81
2022-10-06T23:21:08.596Z,101289.88
2022-10-06T23:23:35.338Z,101280.56
2022-10-06T23:26:10.675Z,101283.00
2022-10-06T23:28:38.530Z,101283.44
2022-10-06T23:31:07.025Z,101288.13
2022-10-06T23:33:34.627Z,101273.78
2022-10-06T23:36:03.854Z,101285.16
2022-10-06T23:38:30.465Z,101277.03
2022-10-06T23:40:57.116Z,101274.44
2022-10-06T23:43:24.108Z,101273.13
2022-10-06T23:45:50.981Z,101280.41
2022-10-06T23:48:17.632Z,101278.78
2022-10-06T23:50:55.225Z,101274.38
2022-10-06T23:53:21.806Z,101273.03
2022-10-06T23:55:48.372Z,101279.94
2022-10-06T23:58:15.021Z,101270.72
